Time;durP1;ratioP1;P1;durP2;ratioP2;P2;SDS_P1;SDS_P2;PMS_P1;PMS_P2;Temp;Humidity;BMP_temperature;BMP_pressure;BME280_temperature;BME280_humidity;BME280_pressure;Samples;Min_cycle;Max_cycle;Signal;HPM_P1;HPM_P2
2023/03/04 00:00:42;;;;;;;34.40;25.75;;;;;;;;;;4941865;28;20061;-77
2023/03/04 00:03:09;;;;;;;29.95;23.27;;;;;;;;;;4937925;28;20033;-77
2023/03/04 00:05:36;;;;;;;25.00;19.45;;;;;;;;;;4938390;28;20389;-77
2023/03/04 00:08:02;;;;;;;;;;;;;;;;;;4939073;28;20385;-77
2023/03/04 00:10:28;;;;;;;26.52;20.58;;;;;;;;;;4937911;28;19914;-77
2023/03/04 00:12:54;;;;;;;27.35;19.95;;;;;;;;;;4939278;28;20633;-77
2023/03/04 00:15:20;;;;;;;25.60;19.95;;;;;;;;;;4935385;28;20422;-76
2023/03/04 00:17:46;;;;;;;26.00;19.13;;;;;;;;;;4938949;28;20069;-77
2023/03/04 00:20:13;;;;;;;25.23;18.70;;;;;;;;;;4935512;28;20633;-77
2023/03/04 00:22:39;;;;;;;25.23;17.88;;;;;;;;;;4939035;28;20031;-77
2023/03/04 00:25:05;;;;;;;24.88;17.88;;;;;;;;;;4937022;28;20027;-77
2023/03/04 00:27:31;;;;;;;25.70;18.23;;;;;;;;;;4938124;28;20129;-77
2023/03/04 00:29:57;;;;;;;21.30;16.15;;;;;;;;;;4939836;28;20026;-78
2023/03/04 00:32:24;;;;;;;24.23;18.65;;;;;;;;;;4936011;28;22061;-78
2023/03/04 00:34:50;;;;;;;25.27;17.48;;;;;;;;;;4934652;28;20162;-77
2023/03/04 00:37:16;;;;;;;26.48;18.02;;;;;;;;;;4936550;28;20097;-78
2023/03/04 00:39:42;;;;;;;23.65;17.77;;;;;;;;;;4937215;28;20105;-77
2023/03/04 00:42:08;;;;;;;22.52;16.20;;;;;;;;;;4936217;28;20751;-77
2023/03/04 00:44:34;;;;;;;22.92;18.67;;;;;;;;;;4938756;28;20077;-77
2023/03/04 00:47:00;;;;;;;25.98;20.23;;;;;;;;;;4934894;28;20033;-77
2023/03/04 00:49:27;;;;;;;27.13;21.45;;;;;;;;;;4940536;28;20018;-77
2023/03/04 00:51:53;;;;;;;29.42;22.10;;;;;;;;;;4938754;28;20042;-77
2023/03/04 00:54:19;;;;;;;31.10;22.65;;;;;;;;;;4935622;28;20050;-77
2023/03/04 00:56:45;;;;;;;30.25;23.30;;;;;;;;;;4936904;28;20105;-77
2023/03/04 00:59:11;;;;;;;28.88;22.13;;;;;;;;;;4935989;28;20053;-77
2023/03/04 01:01:37;;;;;;;27.85;21.63;;;;;;;;;;4938085;28;20430;-77
2023/03/04 01:04:03;;;;;;;26.73;21.30;;;;;;;;;;4936456;28;20055;-77
2023/03/04 01:06:30;;;;;;;26.35;19.70;;;;;;;;;;4936886;28;20128;-76
2023/03/04 01:08:56;;;;;;;23.88;18.35;;;;;;;;;;4937130;28;20037;-77
2023/03/04 01:11:22;;;;;;;27.90;20.45;;;;;;;;;;4933339;28;20043;-77
2023/03/04 01:13:48;;;;;;;25.63;19.80;;;;;;;;;;4944199;28;20038;-77
2023/03/04 01:16:14;;;;;;;27.17;19.67;;;;;;;;;;4940013;28;20061;-76
2023/03/04 01:18:40;;;;;;;34.50;25.02;;;;;;;;;;4940598;28;20507;-77
2023/03/04 01:21:06;;;;;;;27.40;21.88;;;;;;;;;;4942961;28;20361;-77
2023/03/04 01:23:33;;;;;;;30.85;23.33;;;;;;;;;;4943070;28;20544;-77
2023/03/04 01:25:59;;;;;;;33.50;24.95;;;;;;;;;;4942425;28;20105;-77
2023/03/04 01:28:25;;;;;;;41.22;32.17;;;;;;;;;;4942009;28;20442;-76
2023/03/04 01:30:51;;;;;;;31.77;25.50;;;;;;;;;;4944902;28;20031;-77
2023/03/04 01:33:17;;;;;;;37.78;29.20;;;;;;;;;;4944975;28;20039;-77
2023/03/04 01:35:44;;;;;;;39.88;31.42;;;;;;;;;;4942796;28;20042;-76
2023/03/04 01:38:11;;;;;;;41.55;33.17;;;;;;;;;;4944844;28;20035;-77
2023/03/04 01:40:37;;;;;;;39.35;31.50;;;;;;;;;;4944042;28;20023;-75
2023/03/04 01:43:04;;;;;;;39.13;30.38;;;;;;;;;;4943123;28;20038;-76
2023/03/04 01:45:31;;;;;;;36.20;28.73;;;;;;;;;;4945171;28;20259;-76
2023/03/04 01:47:57;;;;;;;37.97;31.10;;;;;;;;;;4944536;28;20396;-77
2023/03/04 01:50:23;;;;;;;37.30;29.85;;;;;;;;;;4938494;28;20388;-77
2023/03/04 01:52:49;;;;;;;34.83;26.08;;;;;;;;;;4941505;28;20039;-78
2023/03/04 01:55:17;;;;;;;41.72;29.17;;;;;;;;;;4940297;28;20046;-76
2023/03/04 01:57:43;;;;;;;39.28;29.75;;;;;;;;;;4944587;28;20335;-75
2023/03/04 02:00:30;;;;;;;34.78;27.23;;;;;;;;;;4941046;28;20466;-75
2023/03/04 02:02:59;;;;;;;30.20;23.95;;;;;;;;;;4946290;28;20339;-75
2023/03/04 02:05:25;;;;;;;35.35;26.77;;;;;;;;;;4945507;28;20111;-76
2023/03/04 02:07:52;;;;;;;32.75;26.08;;;;;;;;;;4942074;28;20035;-75
2023/03/04 02:10:18;;;;;;;35.20;26.98;;;;;;;;;;4937457;28;20764;-75
2023/03/04 02:12:44;;;;;;;35.72;27.88;;;;;;;;;;4944460;28;20034;-75
2023/03/04 02:15:11;;;;;;;35.83;27.35;;;;;;;;;;4935020;28;20618;-75
2023/03/04 02:17:37;;;;;;;37.22;25.40;;;;;;;;;;4943299;28;20459;-75
2023/03/04 02:20:13;;;;;;;35.97;28.20;;;;;;;;;;4940069;28;20204;-75
2023/03/04 02:22:42;;;;;;;36.47;27.63;;;;;;;;;;4942080;28;20040;-75
2023/03/04 02:25:15;;;;;;;37.35;27.83;;;;;;;;;;4938104;28;20030;-76
2023/03/04 02:27:41;;;;;;;39.70;26.33;;;;;;;;;;4943190;28;20034;-75
2023/03/04 02:30:07;;;;;;;34.67;27.45;;;;;;;;;;4939213;28;20053;-76
2023/03/04 02:32:34;;;;;;;32.85;23.90;;;;;;;;;;4943370;28;20401;-75
2023/03/04 02:35:00;;;;;;;31.77;24.70;;;;;;;;;;4942676;28;20772;-75
2023/03/04 02:37:26;;;;;;;31.88;24.38;;;;;;;;;;4940090;28;20888;-76
2023/03/04 02:39:52;;;;;;;31.40;23.25;;;;;;;;;;4936234;28;20453;-75
2023/03/04 02:42:18;;;;;;;29.23;22.27;;;;;;;;;;4937638;28;20125;-75
2023/03/04 02:44:47;;;;;;;29.00;22.45;;;;;;;;;;4938751;28;20430;-75
2023/03/04 02:47:17;;;;;;;27.13;21.00;;;;;;;;;;4937904;28;20142;-76
2023/03/04 02:49:43;;;;;;;26.20;19.13;;;;;;;;;;4943669;28;20027;-75
2023/03/04 02:52:14;;;;;;;25.60;19.25;;;;;;;;;;4940498;28;20309;-76
2023/03/04 02:54:40;;;;;;;27.27;19.45;;;;;;;;;;4941303;28;20039;-75
2023/03/04 02:57:08;;;;;;;26.48;19.58;;;;;;;;;;4938753;28;20034;-76
2023/03/04 02:59:38;;;;;;;25.25;19.98;;;;;;;;;;4941909;28;20153;-75
2023/03/04 03:02:04;;;;;;;25.75;19.90;;;;;;;;;;4943369;28;20043;-76
2023/03/04 03:04:30;;;;;;;;;;;;;;;;;;4945372;28;20374;-76
2023/03/04 03:06:56;;;;;;;26.30;21.00;;;;;;;;;;4938201;28;19922;-75
2023/03/04 03:09:22;;;;;;;27.80;21.58;;;;;;;;;;4943031;28;20299;-75
2023/03/04 03:11:49;;;;;;;28.20;22.15;;;;;;;;;;4942166;28;20060;-75
2023/03/04 03:14:15;;;;;;;25.23;20.38;;;;;;;;;;4936808;28;20047;-76
2023/03/04 03:16:42;;;;;;;24.35;19.30;;;;;;;;;;4942835;28;20034;-75
2023/03/04 03:19:08;;;;;;;24.77;19.58;;;;;;;;;;4941972;28;20057;-76
2023/03/04 03:21:34;;;;;;;27.20;20.83;;;;;;;;;;4945431;28;20033;-75
2023/03/04 03:24:00;;;;;;;25.05;20.30;;;;;;;;;;4942040;28;20105;-76
2023/03/04 03:26:26;;;;;;;24.92;19.50;;;;;;;;;;4936502;28;20058;-76
2023/03/04 03:28:52;;;;;;;25.52;18.63;;;;;;;;;;4940668;28;20019;-76
2023/03/04 03:31:19;;;;;;;24.60;19.73;;;;;;;;;;4938604;28;20038;-76
2023/03/04 03:33:45;;;;;;;22.33;18.27;;;;;;;;;;4942131;28;20050;-76
2023/03/04 03:36:11;;;;;;;22.33;18.10;;;;;;;;;;4936169;28;20444;-76
2023/03/04 03:38:37;;;;;;;23.30;19.23;;;;;;;;;;4942154;28;20027;-76
2023/03/04 03:41:04;;;;;;;21.15;17.60;;;;;;;;;;4944097;28;20352;-76
2023/03/04 03:43:30;;;;;;;22.80;19.45;;;;;;;;;;4941642;28;20066;-77
2023/03/04 03:45:56;;;;;;;24.55;18.45;;;;;;;;;;4942144;28;20697;-76
2023/03/04 03:48:22;;;;;;;24.67;20.10;;;;;;;;;;4938922;28;20517;-76
2023/03/04 03:50:48;;;;;;;22.98;18.02;;;;;;;;;;4938790;28;20061;-76
2023/03/04 03:53:14;;;;;;;24.67;17.63;;;;;;;;;;4936282;28;20062;-76
2023/03/04 03:55:41;;;;;;;25.27;18.23;;;;;;;;;;4939349;28;20038;-76
2023/03/04 03:58:07;;;;;;;22.30;17.98;;;;;;;;;;4937203;28;20054;-76
2023/03/04 04:00:33;;;;;;;24.00;18.83;;;;;;;;;;4941173;28;20116;-78
2023/03/04 04:03:00;;;;;;;23.60;17.80;;;;;;;;;;4937688;28;20497;-75
2023/03/04 04:05:26;;;;;;;21.05;16.95;;;;;;;;;;4937225;28;20432;-75
2023/03/04 04:07:53;;;;;;;22.65;18.08;;;;;;;;;;4942130;28;20568;-76
2023/03/04 04:10:20;;;;;;;24.52;18.45;;;;;;;;;;4939829;28;20110;-75
2023/03/04 04:12:46;;;;;;;24.90;16.55;;;;;;;;;;4944887;28;20027;-76
2023/03/04 04:15:12;;;;;;;21.27;16.40;;;;;;;;;;4939974;28;20075;-76
2023/03/04 04:17:39;;;;;;;22.83;17.05;;;;;;;;;;4940240;28;20403;-77
2023/03/04 04:20:06;;;;;;;22.55;15.95;;;;;;;;;;4940493;28;20126;-76
2023/03/04 04:22:32;;;;;;;21.00;16.63;;;;;;;;;;4941838;28;20121;-76
2023/03/04 04:24:58;;;;;;;21.00;15.63;;;;;;;;;;4942140;28;20031;-77
2023/03/04 04:27:24;;;;;;;21.70;15.23;;;;;;;;;;4938749;28;21943;-76
2023/03/04 04:29:51;;;;;;;21.70;15.80;;;;;;;;;;4942754;28;20030;-75
2023/03/04 04:32:17;;;;;;;22.98;15.93;;;;;;;;;;4938735;28;20047;-76
2023/03/04 04:34:43;;;;;;;19.55;14.93;;;;;;;;;;4940173;28;20055;-76
2023/03/04 04:37:09;;;;;;;18.27;14.50;;;;;;;;;;4939722;28;20038;-76
2023/03/04 04:39:35;;;;;;;20.52;15.00;;;;;;;;;;4944733;28;20035;-76
2023/03/04 04:42:01;;;;;;;18.90;14.02;;;;;;;;;;4943321;28;20601;-76
2023/03/04 04:44:27;;;;;;;20.42;13.75;;;;;;;;;;4941700;28;20030;-75
2023/03/04 04:46:54;;;;;;;19.80;14.27;;;;;;;;;;4944950;28;20054;-76
2023/03/04 04:49:20;;;;;;;17.10;13.18;;;;;;;;;;4945222;28;20474;-76
2023/03/04 04:51:46;;;;;;;19.42;13.80;;;;;;;;;;4945993;28;20039;-76
2023/03/04 04:54:13;;;;;;;17.73;12.77;;;;;;;;;;4946228;28;20523;-76
2023/03/04 04:56:39;;;;;;;19.02;12.98;;;;;;;;;;4944724;28;20497;-76
2023/03/04 04:59:07;;;;;;;19.45;14.85;;;;;;;;;;4939186;28;20497;-77
2023/03/04 05:01:33;;;;;;;18.08;13.57;;;;;;;;;;4946858;28;20038;-76
2023/03/04 05:03:59;;;;;;;18.50;12.77;;;;;;;;;;4945264;28;20027;-76
2023/03/04 05:06:26;;;;;;;18.83;13.57;;;;;;;;;;4941787;28;20027;-76
2023/03/04 05:08:52;;;;;;;17.83;14.40;;;;;;;;;;4946759;28;20675;-77
2023/03/04 05:11:19;;;;;;;19.80;13.18;;;;;;;;;;4944331;28;20089;-76
2023/03/04 05:13:45;;;;;;;16.55;12.30;;;;;;;;;;4946992;28;20037;-76
2023/03/04 05:16:12;;;;;;;18.45;12.77;;;;;;;;;;4941192;28;20042;-76
2023/03/04 05:18:39;;;;;;;18.25;12.80;;;;;;;;;;4948868;28;20558;-76
2023/03/04 05:21:06;;;;;;;18.67;12.10;;;;;;;;;;4942534;28;20036;-77
2023/03/04 05:23:33;;;;;;;16.92;12.10;;;;;;;;;;4944596;28;20038;-76
2023/03/04 05:26:00;;;;;;;15.95;12.02;;;;;;;;;;4945893;28;20031;-76
2023/03/04 05:28:26;;;;;;;24.95;12.65;;;;;;;;;;4939918;28;20030;-76
2023/03/04 05:30:52;;;;;;;21.02;12.95;;;;;;;;;;4946617;28;20034;-76
2023/03/04 05:33:19;;;;;;;17.67;11.70;;;;;;;;;;4947076;28;20078;-76
2023/03/04 05:35:47;;;;;;;15.65;11.00;;;;;;;;;;4946553;28;20038;-75
2023/03/04 05:38:14;;;;;;;17.92;11.02;;;;;;;;;;4945284;28;20065;-77
2023/03/04 05:40:40;;;;;;;16.35;10.80;;;;;;;;;;4948644;28;20067;-76
2023/03/04 05:43:06;;;;;;;;;;;;;;;;;;4943989;28;20027;-76
2023/03/04 05:45:33;;;;;;;16.20;11.52;;;;;;;;;;4947052;28;19960;-77
2023/03/04 05:47:59;;;;;;;17.42;11.57;;;;;;;;;;4946355;28;20862;-76
2023/03/04 05:50:25;;;;;;;15.73;11.05;;;;;;;;;;4943911;28;20094;-76
2023/03/04 05:52:51;;;;;;;15.90;11.40;;;;;;;;;;4946349;28;20228;-76
2023/03/04 05:55:18;;;;;;;16.38;10.50;;;;;;;;;;4944000;28;20062;-76
2023/03/04 05:57:44;;;;;;;;;;;;;;;;;;4942830;28;20031;-76
2023/03/04 06:00:12;;;;;;;15.05;10.30;;;;;;;;;;4940885;28;19918;-76
2023/03/04 06:02:38;;;;;;;16.42;11.02;;;;;;;;;;4943252;28;20157;-75
2023/03/04 06:05:04;;;;;;;15.55;10.15;;;;;;;;;;4946175;28;20658;-76
2023/03/04 06:07:30;;;;;;;14.75;9.50;;;;;;;;;;4942673;28;20410;-75
2023/03/04 06:09:56;;;;;;;17.60;11.30;;;;;;;;;;4943167;28;20274;-76
2023/03/04 06:12:23;;;;;;;17.00;12.23;;;;;;;;;;4943561;28;20031;-76
2023/03/04 06:14:49;;;;;;;17.10;11.02;;;;;;;;;;4943397;28;20031;-76
2023/03/04 06:17:15;;;;;;;15.65;11.05;;;;;;;;;;4937376;28;20042;-76
2023/03/04 06:19:41;;;;;;;17.00;11.32;;;;;;;;;;4942114;28;20062;-76
2023/03/04 06:22:08;;;;;;;16.17;11.00;;;;;;;;;;4938109;28;20086;-76
2023/03/04 06:24:34;;;;;;;;;;;;;;;;;;4939876;28;20154;-76
2023/03/04 06:27:00;;;;;;;17.95;11.13;;;;;;;;;;4941149;28;20333;-77
2023/03/04 06:29:27;;;;;;;15.55;10.65;;;;;;;;;;4941093;28;20038;-75
2023/03/04 06:31:53;;;;;;;15.05;9.88;;;;;;;;;;4944749;28;20035;-76
2023/03/04 06:34:19;;;;;;;15.52;11.55;;;;;;;;;;4956218;28;20158;-76
2023/03/04 06:36:45;;;;;;;15.57;10.55;;;;;;;;;;4953256;28;20824;-76
2023/03/04 06:39:11;;;;;;;14.75;9.93;;;;;;;;;;4953641;28;20205;-76
2023/03/04 06:41:38;;;;;;;16.00;10.73;;;;;;;;;;4957095;28;20034;-75
2023/03/04 06:44:04;;;;;;;17.67;11.52;;;;;;;;;;4953645;28;20280;-76
2023/03/04 06:46:30;;;;;;;;;;;;;;;;;;4954501;28;20066;-76
2023/03/04 06:48:56;;;;;;;17.73;11.52;;;;;;;;;;4951580;28;19914;-76
2023/03/04 06:51:22;;;;;;;16.35;11.05;;;;;;;;;;4946819;28;20034;-76
2023/03/04 06:53:49;;;;;;;18.65;11.23;;;;;;;;;;4948661;28;20113;-77
2023/03/04 06:56:15;;;;;;;17.13;10.80;;;;;;;;;;4943953;28;20035;-76
2023/03/04 06:58:41;;;;;;;16.65;11.05;;;;;;;;;;4940351;28;20069;-76
2023/03/04 07:01:07;;;;;;;;;;;;;;;;;;4938026;28;20035;-76
2023/03/04 07:03:33;;;;;;;16.88;10.98;;;;;;;;;;4940507;28;20024;-76
2023/03/04 07:06:00;;;;;;;21.52;10.98;;;;;;;;;;4936040;28;20043;-76
2023/03/04 07:08:26;;;;;;;19.23;11.23;;;;;;;;;;4935668;28;20034;-76
2023/03/04 07:10:52;;;;;;;20.50;13.52;;;;;;;;;;4935502;28;20122;-76
2023/03/04 07:13:18;;;;;;;19.20;11.75;;;;;;;;;;4941887;28;20583;-76
2023/03/04 07:15:44;;;;;;;17.85;11.18;;;;;;;;;;4940003;28;20521;-76
2023/03/04 07:18:10;;;;;;;16.45;11.25;;;;;;;;;;4939625;28;20697;-75
2023/03/04 07:20:36;;;;;;;17.27;11.65;;;;;;;;;;4939338;28;20030;-77
2023/03/04 07:23:03;;;;;;;22.90;11.20;;;;;;;;;;4938271;28;20461;-76
2023/03/04 07:25:29;;;;;;;18.70;12.70;;;;;;;;;;4938284;28;20038;-76
2023/03/04 07:27:55;;;;;;;22.52;12.35;;;;;;;;;;4940665;28;20027;-76
2023/03/04 07:30:21;;;;;;;17.85;10.88;;;;;;;;;;4938860;28;20369;-76
2023/03/04 07:32:47;;;;;;;22.17;10.80;;;;;;;;;;4942857;28;20043;-75
2023/03/04 07:35:13;;;;;;;17.08;10.63;;;;;;;;;;4939273;28;20488;-76
2023/03/04 07:37:39;;;;;;;23.70;12.23;;;;;;;;;;4944009;28;20381;-76
2023/03/04 07:40:07;;;;;;;19.65;12.85;;;;;;;;;;4943927;28;20098;-75
2023/03/04 07:42:33;;;;;;;20.27;11.23;;;;;;;;;;4941773;28;20041;-75
2023/03/04 07:45:00;;;;;;;19.15;11.10;;;;;;;;;;4943514;28;20279;-77
2023/03/04 07:47:27;;;;;;;20.52;11.15;;;;;;;;;;4940086;28;20061;-77
2023/03/04 07:49:55;;;;;;;16.52;10.68;;;;;;;;;;4940992;28;20026;-77
2023/03/04 07:52:21;;;;;;;18.15;10.52;;;;;;;;;;4942041;28;20037;-77
2023/03/04 07:54:47;;;;;;;16.63;10.65;;;;;;;;;;4941223;28;20106;-75
2023/03/04 07:57:14;;;;;;;16.00;9.60;;;;;;;;;;4936948;28;20046;-75
2023/03/04 07:59:40;;;;;;;17.50;9.98;;;;;;;;;;4936173;28;20030;-75
2023/03/04 08:02:06;;;;;;;17.00;10.20;;;;;;;;;;4932917;28;20237;-75
2023/03/04 08:04:33;;;;;;;17.88;9.82;;;;;;;;;;4938966;28;20031;-75
2023/03/04 08:06:59;;;;;;;20.30;10.43;;;;;;;;;;4940430;28;20043;-75
2023/03/04 08:09:25;;;;;;;27.38;11.25;;;;;;;;;;4934546;28;20095;-75
2023/03/04 08:11:51;;;;;;;26.55;15.00;;;;;;;;;;4942023;28;20294;-75
2023/03/04 08:14:17;;;;;;;37.00;19.00;;;;;;;;;;4941422;28;20039;-75
2023/03/04 08:16:44;;;;;;;43.80;20.40;;;;;;;;;;4934159;28;20027;-77
2023/03/04 08:19:10;;;;;;;70.38;43.47;;;;;;;;;;4940168;28;20548;-77
2023/03/04 08:21:36;;;;;;;70.97;42.40;;;;;;;;;;4941220;28;20670;-78
2023/03/04 08:24:06;;;;;;;80.25;47.55;;;;;;;;;;4938681;28;20402;-75
2023/03/04 08:26:37;;;;;;;63.72;40.05;;;;;;;;;;4943074;28;20023;-75
2023/03/04 08:29:04;;;;;;;68.40;44.45;;;;;;;;;;4939847;28;20051;-75
2023/03/04 08:31:30;;;;;;;71.25;46.13;;;;;;;;;;4939422;28;20030;-76
2023/03/04 08:33:56;;;;;;;71.85;48.83;;;;;;;;;;4941968;28;20328;-76
2023/03/04 08:36:22;;;;;;;91.32;64.68;;;;;;;;;;4938369;28;20409;-76
2023/03/04 08:38:48;;;;;;;78.70;53.17;;;;;;;;;;4938273;28;20508;-77
2023/03/04 08:41:15;;;;;;;58.05;41.00;;;;;;;;;;4939507;28;20293;-77
2023/03/04 08:43:42;;;;;;;54.10;37.10;;;;;;;;;;4940557;28;20042;-77
2023/03/04 08:46:08;;;;;;;49.00;34.55;;;;;;;;;;4938081;28;20144;-77
2023/03/04 08:48:34;;;;;;;43.05;31.05;;;;;;;;;;4937625;28;20148;-76
2023/03/04 08:51:00;;;;;;;36.92;26.00;;;;;;;;;;4939814;28;20030;-77
2023/03/04 08:53:26;;;;;;;34.13;24.13;;;;;;;;;;4939631;28;20069;-78
2023/03/04 08:55:52;;;;;;;34.65;23.88;;;;;;;;;;4930367;28;20229;-78
2023/03/04 08:58:19;;;;;;;36.13;22.90;;;;;;;;;;4937498;28;20818;-75
2023/03/04 09:00:50;;;;;;;26.73;18.70;;;;;;;;;;4947718;28;20342;-76
2023/03/04 09:03:18;;;;;;;26.40;18.15;;;;;;;;;;4942055;28;20027;-76
2023/03/04 09:05:45;;;;;;;23.45;16.92;;;;;;;;;;4941464;28;20765;-77
2023/03/04 09:08:11;;;;;;;23.85;16.30;;;;;;;;;;4949701;28;20320;-76
2023/03/04 09:10:37;;;;;;;24.65;13.95;;;;;;;;;;4942511;28;20031;-77
2023/03/04 09:13:05;;;;;;;22.23;14.77;;;;;;;;;;4938939;28;20027;-77
2023/03/04 09:15:34;;;;;;;22.05;13.18;;;;;;;;;;4941979;28;21237;-76
2023/03/04 09:18:01;;;;;;;24.92;17.58;;;;;;;;;;4950305;28;20066;-76
2023/03/04 09:20:28;;;;;;;22.45;14.05;;;;;;;;;;4945672;28;20125;-76
2023/03/04 09:22:54;;;;;;;23.05;13.43;;;;;;;;;;4950667;28;20927;-78
2023/03/04 09:25:20;;;;;;;24.38;14.02;;;;;;;;;;4941210;28;20385;-77
2023/03/04 09:27:46;;;;;;;21.90;14.52;;;;;;;;;;4939793;28;20710;-76
2023/03/04 09:30:12;;;;;;;22.05;14.35;;;;;;;;;;4939186;28;20110;-78
2023/03/04 09:32:40;;;;;;;24.50;14.20;;;;;;;;;;4940190;28;20035;-78
2023/03/04 09:35:06;;;;;;;21.10;13.52;;;;;;;;;;4940285;28;20046;-78
2023/03/04 09:37:33;;;;;;;19.15;11.68;;;;;;;;;;4945742;28;20041;-77
2023/03/04 09:39:59;;;;;;;17.98;10.45;;;;;;;;;;4940130;28;20473;-78
2023/03/04 09:42:28;;;;;;;17.13;10.80;;;;;;;;;;4938390;28;20035;-77
2023/03/04 09:44:54;;;;;;;21.95;10.18;;;;;;;;;;4941001;28;20034;-78
2023/03/04 09:47:22;;;;;;;19.17;10.00;;;;;;;;;;4942827;28;20031;-78
2023/03/04 09:49:52;;;;;;;17.92;9.18;;;;;;;;;;4943622;28;20034;-78
2023/03/04 09:52:34;;;;;;;16.85;9.30;;;;;;;;;;4943490;28;20039;-76
2023/03/04 09:55:03;;;;;;;16.63;9.40;;;;;;;;;;4940139;28;20137;-77
2023/03/04 09:57:39;;;;;;;20.00;10.20;;;;;;;;;;4943895;28;20393;-76
2023/03/04 10:00:12;;;;;;;17.63;9.43;;;;;;;;;;4942703;28;20150;-77
2023/03/04 10:02:47;;;;;;;17.60;10.65;;;;;;;;;;4941898;28;20070;-78
2023/03/04 10:05:19;;;;;;;18.20;10.43;;;;;;;;;;4942181;28;20795;-78
2023/03/04 10:07:48;;;;;;;17.77;10.10;;;;;;;;;;4942170;28;20062;-77
2023/03/04 10:10:39;;;;;;;16.30;8.88;;;;;;;;;;4940008;28;20114;-77
2023/03/04 10:13:10;;;;;;;17.15;8.70;;;;;;;;;;4944565;28;20362;-77
2023/03/04 10:15:39;;;;;;;15.88;9.65;;;;;;;;;;4942562;28;20491;-77
2023/03/04 10:18:22;;;;;;;16.33;8.30;;;;;;;;;;4943357;28;20030;-78
2023/03/04 10:21:01;;;;;;;16.55;8.77;;;;;;;;;;4945373;28;20027;-76
2023/03/04 10:23:28;;;;;;;16.38;8.95;;;;;;;;;;4936665;28;20559;-78
2023/03/04 10:25:55;;;;;;;13.88;8.57;;;;;;;;;;4938881;28;20323;-77
2023/03/04 10:28:24;;;;;;;14.45;9.02;;;;;;;;;;4936518;28;20066;-78
2023/03/04 10:31:08;;;;;;;15.73;8.60;;;;;;;;;;4941368;28;20038;-77
2023/03/04 10:33:35;;;;;;;15.40;8.63;;;;;;;;;;4940838;28;20043;-77
2023/03/04 10:36:14;;;;;;;14.45;7.82;;;;;;;;;;4940745;28;20031;-77
2023/03/04 10:38:41;;;;;;;16.33;8.25;;;;;;;;;;4938751;28;20390;-77
2023/03/04 10:41:15;;;;;;;17.70;8.30;;;;;;;;;;4941938;28;20368;-78
2023/03/04 10:43:45;;;;;;;16.35;8.65;;;;;;;;;;4942982;28;20481;-78
2023/03/04 10:46:12;;;;;;;14.98;7.65;;;;;;;;;;4939294;28;20023;-77
2023/03/04 10:48:40;;;;;;;14.23;7.57;;;;;;;;;;4941456;28;20417;-78
2023/03/04 10:51:18;;;;;;;17.65;8.70;;;;;;;;;;4936036;28;20031;-78
2023/03/04 10:53:44;;;;;;;14.55;7.70;;;;;;;;;;4938744;28;20035;-77
2023/03/04 10:56:29;;;;;;;14.63;7.80;;;;;;;;;;4937309;28;20623;-77
2023/03/04 10:59:15;;;;;;;17.40;9.77;;;;;;;;;;4942299;28;20565;-77
2023/03/04 11:01:41;;;;;;;15.48;7.97;;;;;;;;;;4940985;28;20202;-78
2023/03/04 11:04:17;;;;;;;14.18;8.60;;;;;;;;;;4933822;28;20571;-79
2023/03/04 11:06:43;;;;;;;17.48;8.82;;;;;;;;;;4941892;28;20028;-77
2023/03/04 11:09:20;;;;;;;15.48;8.52;;;;;;;;;;4938592;28;20054;-79
2023/03/04 11:11:46;;;;;;;20.05;8.65;;;;;;;;;;4943335;28;20043;-79
2023/03/04 11:14:16;;;;;;;14.77;8.60;;;;;;;;;;4938413;28;20109;-78
2023/03/04 11:16:51;;;;;;;14.07;8.90;;;;;;;;;;4942830;28;20118;-78
2023/03/04 11:19:18;;;;;;;16.02;9.80;;;;;;;;;;4936510;28;20322;-76
2023/03/04 11:21:44;;;;;;;18.02;10.27;;;;;;;;;;4938714;28;20382;-78
2023/03/04 11:24:16;;;;;;;17.65;9.93;;;;;;;;;;4937456;28;20499;-78
2023/03/04 11:26:45;;;;;;;15.75;9.60;;;;;;;;;;4938494;28;20047;-77
2023/03/04 11:29:30;;;;;;;14.68;8.63;;;;;;;;;;4939802;28;20719;-79
2023/03/04 11:32:01;;;;;;;16.08;8.77;;;;;;;;;;4942244;28;20019;-78
2023/03/04 11:34:27;;;;;;;15.40;8.30;;;;;;;;;;4938145;28;20074;-79
2023/03/04 11:36:59;;;;;;;13.00;7.82;;;;;;;;;;4944207;28;20038;-78
2023/03/04 11:39:34;;;;;;;17.05;9.05;;;;;;;;;;4938574;28;20934;-78
2023/03/04 11:42:20;;;;;;;14.60;8.70;;;;;;;;;;4939790;28;20062;-78
2023/03/04 11:44:47;;;;;;;15.50;8.65;;;;;;;;;;4940707;28;20670;-78
2023/03/04 11:47:32;;;;;;;16.13;8.45;;;;;;;;;;4936576;28;20036;-78
2023/03/04 11:50:16;;;;;;;14.23;8.27;;;;;;;;;;4940519;28;20030;-78
2023/03/04 11:53:04;;;;;;;15.18;8.13;;;;;;;;;;4940200;28;20042;-79
2023/03/04 11:55:50;;;;;;;16.52;8.70;;;;;;;;;;4940811;28;20477;-79
2023/03/04 11:58:22;;;;;;;15.07;8.40;;;;;;;;;;4937385;28;20047;-77
2023/03/04 12:00:55;;;;;;;15.98;8.48;;;;;;;;;;4950773;28;20030;-78
2023/03/04 12:03:49;;;;;;;15.75;8.45;;;;;;;;;;4957296;28;20077;-76
2023/03/04 12:06:27;;;;;;;16.45;8.98;;;;;;;;;;4945434;28;20114;-77
2023/03/04 12:09:15;;;;;;;16.92;9.25;;;;;;;;;;4951504;28;20038;-76
2023/03/04 12:12:07;;;;;;;14.38;7.65;;;;;;;;;;4950710;28;20265;-79
2023/03/04 12:15:09;;;;;;;16.50;7.82;;;;;;;;;;4923614;28;20347;-78
2023/03/04 12:17:54;;;;;;;16.88;8.02;;;;;;;;;;4886524;29;20159;-77
2023/03/04 12:20:39;;;;;;;19.65;8.38;;;;;;;;;;4887597;29;20426;-76
2023/03/04 12:23:17;;;;;;;14.75;9.13;;;;;;;;;;4876895;29;20104;-77
2023/03/04 12:25:49;;;;;;;14.02;7.88;;;;;;;;;;4883461;29;20578;-77
2023/03/04 12:28:42;;;;;;;14.30;8.73;;;;;;;;;;4877955;29;20215;-76
2023/03/04 12:31:21;;;;;;;15.13;8.35;;;;;;;;;;4824315;29;20161;-76
2023/03/04 12:34:02;;;;;;;14.20;8.23;;;;;;;;;;4823889;29;20059;-77
2023/03/04 12:36:43;;;;;;;16.27;8.82;;;;;;;;;;4817950;29;20046;-78
2023/03/04 12:39:12;;;;;;;15.27;8.70;;;;;;;;;;4828863;29;20555;-78
2023/03/04 12:41:53;;;;;;;15.85;7.53;;;;;;;;;;4832697;29;20054;-77
2023/03/04 12:44:20;;;;;;;16.27;9.50;;;;;;;;;;4817345;29;20606;-78
2023/03/04 12:46:52;;;;;;;13.90;8.00;;;;;;;;;;4827450;29;20040;-77
2023/03/04 12:49:37;;;;;;;15.57;9.25;;;;;;;;;;4822894;29;20612;-76
2023/03/04 12:52:03;;;;;;;14.18;7.85;;;;;;;;;;4862336;29;20535;-77
2023/03/04 12:54:34;;;;;;;13.98;8.45;;;;;;;;;;4881011;29;20134;-79
2023/03/04 12:57:04;;;;;;;18.35;8.02;;;;;;;;;;4883256;29;20036;-76
2023/03/04 12:59:37;;;;;;;17.15;8.38;;;;;;;;;;4872454;29;20060;-78
2023/03/04 13:02:30;;;;;;;11.30;6.35;;;;;;;;;;4887594;29;20078;-79
2023/03/04 13:05:03;;;;;;;15.52;7.85;;;;;;;;;;4869351;29;20111;-77
2023/03/04 13:07:38;;;;;;;17.85;11.20;;;;;;;;;;4902797;28;20050;-77
2023/03/04 13:10:08;;;;;;;17.15;8.38;;;;;;;;;;4942695;28;20035;-77
2023/03/04 13:12:49;;;;;;;12.45;7.70;;;;;;;;;;4943228;28;20031;-78
2023/03/04 13:15:21;;;;;;;16.80;8.82;;;;;;;;;;4936051;28;20239;-76
2023/03/04 13:18:10;;;;;;;14.48;8.07;;;;;;;;;;4938420;28;20704;-75
2023/03/04 13:20:38;;;;;;;16.13;9.80;;;;;;;;;;4938419;28;20445;-78
2023/03/04 13:23:14;;;;;;;16.42;8.85;;;;;;;;;;4943991;28;20041;-78
2023/03/04 13:25:47;;;;;;;12.93;7.05;;;;;;;;;;4940446;28;20117;-79
2023/03/04 13:28:18;;;;;;;15.95;7.93;;;;;;;;;;4943906;28;20165;-75
2023/03/04 13:30:58;;;;;;;17.00;8.55;;;;;;;;;;4940088;28;20114;-78
2023/03/04 13:33:24;;;;;;;14.88;8.30;;;;;;;;;;4945057;28;20046;-78
2023/03/04 13:36:03;;;;;;;18.17;8.82;;;;;;;;;;4946883;28;20047;-78
2023/03/04 13:38:29;;;;;;;13.52;8.68;;;;;;;;;;4938759;28;20031;-78
2023/03/04 13:41:07;;;;;;;17.50;9.75;;;;;;;;;;4941731;28;20208;-78
2023/03/04 13:43:40;;;;;;;14.63;8.05;;;;;;;;;;4942600;28;20050;-78
2023/03/04 13:46:19;;;;;;;16.77;8.95;;;;;;;;;;4938265;28;20034;-78
2023/03/04 13:48:51;;;;;;;17.05;7.97;;;;;;;;;;4942632;28;20098;-78
2023/03/04 13:51:18;;;;;;;16.67;8.55;;;;;;;;;;4938184;28;20144;-78
2023/03/04 13:53:55;;;;;;;17.40;9.30;;;;;;;;;;4939659;28;20042;-79
2023/03/04 13:56:27;;;;;;;14.68;8.57;;;;;;;;;;4939392;28;20038;-78
2023/03/04 13:59:09;;;;;;;17.98;9.18;;;;;;;;;;4944224;28;20035;-78
2023/03/04 14:01:37;;;;;;;16.02;7.60;;;;;;;;;;4944879;28;20027;-77
2023/03/04 14:04:18;;;;;;;14.38;8.30;;;;;;;;;;4937671;28;20242;-78
2023/03/04 14:06:45;;;;;;;16.63;9.10;;;;;;;;;;4938223;28;20569;-77
2023/03/04 14:09:22;;;;;;;14.85;8.85;;;;;;;;;;4938589;28;20458;-78
2023/03/04 14:11:49;;;;;;;16.92;9.38;;;;;;;;;;4945483;28;20151;-78
2023/03/04 14:14:20;;;;;;;14.75;8.30;;;;;;;;;;4934510;28;20039;-77
2023/03/04 14:16:47;;;;;;;15.43;8.55;;;;;;;;;;4936801;28;20038;-78
2023/03/04 14:19:16;;;;;;;14.35;8.05;;;;;;;;;;4938951;28;20042;-79
2023/03/04 14:21:46;;;;;;;18.45;8.93;;;;;;;;;;4942140;28;20038;-79
2023/03/04 14:24:13;;;;;;;17.85;9.98;;;;;;;;;;4934750;28;20034;-78
2023/03/04 14:26:39;;;;;;;17.27;10.38;;;;;;;;;;4939271;28;20026;-77
2023/03/04 14:29:05;;;;;;;;;;;;;;;;;;4938153;28;20035;-77
2023/03/04 14:31:34;;;;;;;15.75;9.43;;;;;;;;;;4939991;28;19921;-80
2023/03/04 14:34:01;;;;;;;13.80;8.15;;;;;;;;;;4943600;28;20042;-80